createdAt,value
2023-04-13T00:00:52.898Z,0.50
2023-04-13T00:03:20.194Z,0.87
2023-04-13T00:05:47.811Z,0.83
2023-04-13T00:08:17.451Z,1.43
2023-04-13T00:10:45.994Z,1.00
2023-04-13T00:13:15.290Z,0.57
2023-04-13T00:15:43.636Z,0.50
2023-04-13T00:18:12.124Z,0.50
2023-04-13T00:20:39.226Z,0.27
2023-04-13T00:23:06.041Z,0.30
2023-04-13T00:25:32.920Z,0.30
2023-04-13T00:28:03.910Z,0.30
2023-04-13T00:30:31.173Z,0.17
2023-04-13T00:32:58.295Z,0.10
2023-04-13T00:35:26.596Z,0.30
2023-04-13T00:37:53.809Z,0.10
2023-04-13T00:40:20.551Z,0.20
2023-04-13T00:42:53.123Z,0.20
2023-04-13T00:45:20.460Z,0.20
2023-04-13T00:47:50.964Z,0.23
2023-04-13T00:50:20.814Z,0.10
2023-04-13T00:52:49.282Z,0.10
2023-04-13T00:55:21.236Z,0.20
2023-04-13T00:57:52.828Z,0.20
2023-04-13T01:00:21.257Z,0.43
2023-04-13T01:02:48.318Z,0.20
2023-04-13T01:05:17.063Z,0.20
2023-04-13T01:08:21.026Z,0.30
2023-04-13T01:10:54.690Z,0.20
2023-04-13T01:13:24.235Z,0.30
2023-04-13T01:16:12.083Z,0.20
2023-04-13T01:18:41.886Z,0.10
2023-04-13T01:21:14.701Z,0.47
2023-04-13T01:24:05.043Z,0.20
2023-04-13T01:27:03.423Z,0.20
2023-04-13T01:29:31.153Z,0.20
2023-04-13T01:31:58.757Z,0.23
2023-04-13T01:34:25.568Z,0.40
2023-04-13T01:36:53.221Z,0.30
2023-04-13T01:39:20.970Z,0.60
2023-04-13T01:41:53.592Z,0.30
2023-04-13T01:44:21.207Z,0.33
2023-04-13T01:46:52.577Z,0.57
2023-04-13T01:49:38.340Z,0.97
2023-04-13T01:52:35.630Z,0.33
2023-04-13T01:55:07.034Z,0.87
2023-04-13T01:57:40.119Z,0.57
2023-04-13T02:00:12.492Z,0.70
2023-04-13T02:02:39.571Z,0.30
2023-04-13T02:05:09.560Z,0.40
2023-04-13T02:07:40.024Z,0.40
2023-04-13T02:10:07.904Z,0.40
2023-04-13T02:12:35.092Z,0.43
2023-04-13T02:15:01.857Z,0.30
2023-04-13T02:17:29.682Z,0.50
2023-04-13T02:19:57.511Z,0.37
2023-04-13T02:22:24.546Z,0.20
2023-04-13T02:24:51.513Z,0.30
2023-04-13T02:27:18.882Z,0.30
2023-04-13T02:29:45.626Z,0.30
2023-04-13T02:32:12.442Z,0.20
2023-04-13T02:34:40.038Z,0.30
2023-04-13T02:37:08.092Z,0.30
2023-04-13T02:39:36.390Z,0.20
2023-04-13T02:42:05.544Z,0.20
2023-04-13T02:44:34.184Z,0.37
2023-04-13T02:47:02.153Z,0.20
2023-04-13T02:49:28.974Z,0.20
2023-04-13T02:52:15.780Z,0.20
2023-04-13T02:55:05.535Z,0.27
2023-04-13T02:57:44.835Z,0.40
2023-04-13T03:00:13.415Z,0.30
2023-04-13T03:02:53.276Z,0.20
2023-04-13T03:05:21.014Z,0.30
2023-04-13T03:07:47.896Z,0.30
2023-04-13T03:10:15.004Z,0.30
2023-04-13T03:12:45.035Z,0.20
2023-04-13T03:15:12.577Z,0.20
2023-04-13T03:17:41.602Z,0.33
2023-04-13T03:20:16.805Z,0.33
2023-04-13T03:22:53.721Z,0.20
2023-04-13T03:25:22.072Z,0.40
2023-04-13T03:27:49.174Z,0.30
2023-04-13T03:30:18.882Z,0.57
2023-04-13T03:32:53.236Z,0.40
2023-04-13T03:35:23.103Z,0.33
2023-04-13T03:37:50.877Z,0.43
2023-04-13T03:40:28.982Z,0.40
2023-04-13T03:42:56.868Z,0.40
2023-04-13T03:45:27.105Z,0.30
2023-04-13T03:47:58.295Z,0.50
2023-04-13T03:50:25.975Z,0.30
2023-04-13T03:52:53.383Z,0.40
2023-04-13T03:55:21.613Z,0.30
2023-04-13T03:57:51.021Z,0.50
2023-04-13T04:00:22.447Z,0.30
2023-04-13T04:03:11.774Z,0.40
2023-04-13T04:06:08.138Z,0.43
2023-04-13T04:08:37.577Z,0.60
2023-04-13T04:11:08.966Z,0.97
2023-04-13T04:13:36.312Z,0.70
2023-04-13T04:16:09.385Z,1.00
2023-04-13T04:18:39.585Z,1.20
2023-04-13T04:21:08.619Z,0.30
2023-04-13T04:23:37.974Z,0.77
2023-04-13T04:26:07.506Z,0.40
2023-04-13T04:28:43.981Z,0.40
2023-04-13T04:31:18.223Z,0.60
2023-04-13T04:33:49.008Z,0.90
2023-04-13T04:36:18.541Z,1.20
2023-04-13T04:39:05.535Z,0.80
2023-04-13T04:41:39.855Z,1.23
2023-04-13T04:44:09.109Z,1.67
2023-04-13T04:46:41.693Z,3.27
2023-04-13T04:49:12.381Z,0.83
2023-04-13T04:51:39.837Z,2.37
2023-04-13T04:54:07.617Z,4.03
2023-04-13T04:56:34.572Z,2.63
2023-04-13T04:59:02.009Z,1.77
2023-04-13T05:01:39.645Z,2.20
2023-04-13T05:04:12.144Z,5.27
2023-04-13T05:06:41.657Z,6.43
2023-04-13T05:09:11.950Z,2.37
2023-04-13T05:11:44.202Z,1.73
2023-04-13T05:14:12.711Z,2.00
2023-04-13T05:16:39.913Z,1.03
2023-04-13T05:19:16.036Z,1.67
2023-04-13T05:21:48.422Z,1.60
2023-04-13T05:24:15.483Z,0.70
2023-04-13T05:26:43.545Z,0.70
2023-04-13T05:29:12.811Z,0.80
2023-04-13T05:31:43.142Z,0.63
2023-04-13T05:34:11.785Z,0.97
2023-04-13T05:36:41.518Z,1.07
2023-04-13T05:39:11.720Z,0.63
2023-04-13T05:41:38.858Z,0.40
2023-04-13T05:44:06.639Z,0.57
2023-04-13T05:46:35.590Z,0.40
2023-04-13T05:49:05.769Z,0.40
2023-04-13T05:51:33.182Z,0.50
2023-04-13T05:54:00.202Z,0.50
2023-04-13T05:56:29.753Z,0.50
2023-04-13T05:59:01.118Z,0.40
2023-04-13T06:01:29.801Z,0.47
2023-04-13T06:03:57.137Z,0.50
2023-04-13T06:06:25.040Z,0.50
2023-04-13T06:08:53.434Z,0.60
2023-04-13T06:11:22.198Z,0.50
2023-04-13T06:13:49.151Z,0.57
2023-04-13T06:16:16.041Z,0.60
2023-04-13T06:18:43.078Z,0.40
2023-04-13T06:21:10.184Z,0.40
2023-04-13T06:23:37.687Z,0.43
2023-04-13T06:26:13.204Z,0.50
2023-04-13T06:28:49.036Z,0.47
2023-04-13T06:31:16.700Z,0.50
2023-04-13T06:33:45.992Z,0.50
2023-04-13T06:36:13.273Z,0.40
2023-04-13T06:38:40.217Z,0.50
2023-04-13T06:41:11.790Z,0.43
2023-04-13T06:43:40.531Z,0.50
2023-04-13T06:46:28.673Z,0.50
2023-04-13T06:49:01.349Z,0.50
2023-04-13T06:51:31.383Z,0.50
2023-04-13T06:53:59.973Z,0.60
2023-04-13T06:56:27.265Z,0.40
2023-04-13T06:59:00.194Z,0.30
2023-04-13T07:01:29.391Z,0.50
2023-04-13T07:03:57.324Z,0.30
2023-04-13T07:06:24.915Z,0.40
2023-04-13T07:08:53.242Z,0.37
2023-04-13T07:11:21.815Z,0.57
2023-04-13T07:13:48.824Z,0.60
2023-04-13T07:16:16.327Z,0.30
2023-04-13T07:18:45.966Z,0.60
2023-04-13T07:21:12.832Z,0.73
2023-04-13T07:23:54.748Z,0.30
2023-04-13T07:26:23.228Z,0.60
2023-04-13T07:28:50.950Z,0.40
2023-04-13T07:31:22.104Z,0.50
2023-04-13T07:33:51.063Z,1.10
2023-04-13T07:36:24.394Z,0.33
2023-04-13T07:38:54.673Z,0.57
2023-04-13T07:41:23.391Z,0.47
2023-04-13T07:43:55.835Z,0.60
2023-04-13T07:46:27.121Z,0.37
2023-04-13T07:48:55.173Z,0.80
2023-04-13T07:51:26.845Z,0.50
2023-04-13T07:53:55.665Z,0.50
2023-04-13T07:56:26.171Z,0.43
2023-04-13T07:58:54.532Z,0.70
2023-04-13T08:01:22.407Z,0.50
2023-04-13T08:03:50.553Z,0.60
2023-04-13T08:06:22.518Z,0.53
2023-04-13T08:08:52.367Z,0.70
2023-04-13T08:11:19.580Z,0.60
2023-04-13T08:13:49.638Z,0.70
2023-04-13T08:16:17.090Z,0.40
2023-04-13T08:18:44.535Z,0.70
2023-04-13T08:21:13.019Z,0.63
2023-04-13T08:23:44.495Z,0.77
2023-04-13T08:26:19.183Z,0.40
2023-04-13T08:28:48.387Z,0.53
2023-04-13T08:31:16.083Z,0.45
2023-04-13T08:33:49.029Z,0.50
2023-04-13T08:36:17.578Z,0.50
2023-04-13T08:38:50.251Z,0.47
2023-04-13T08:41:21.706Z,0.50
2023-04-13T08:43:51.995Z,0.55
2023-04-13T08:46:24.230Z,0.60
2023-04-13T08:48:55.216Z,0.70
2023-04-13T08:51:31.396Z,0.50
2023-04-13T08:53:59.515Z,0.38
2023-04-13T08:56:42.655Z,0.50
2023-04-13T08:59:17.245Z,0.80
2023-04-13T09:01:49.275Z,0.57
2023-04-13T09:04:21.084Z,0.70
2023-04-13T09:06:52.053Z,0.40
2023-04-13T09:09:21.401Z,0.52
2023-04-13T09:11:51.028Z,0.75
2023-04-13T09:14:23.247Z,0.68
2023-04-13T09:16:52.236Z,0.50
2023-04-13T09:19:33.030Z,0.40
2023-04-13T09:22:14.196Z,0.60
2023-04-13T09:24:42.199Z,0.50
2023-04-13T09:27:23.565Z,0.57
2023-04-13T09:29:56.496Z,0.60
2023-04-13T09:32:26.080Z,0.50
2023-04-13T09:35:05.343Z,0.70
2023-04-13T09:37:32.961Z,0.50
2023-04-13T09:40:16.786Z,0.52
2023-04-13T09:42:54.855Z,0.52
2023-04-13T09:45:21.996Z,0.40
2023-04-13T09:47:49.497Z,0.60
2023-04-13T09:50:22.324Z,0.80
2023-04-13T09:53:18.762Z,0.50
2023-04-13T09:55:47.497Z,0.70
2023-04-13T09:58:17.666Z,0.45
2023-04-13T10:00:46.682Z,0.40
2023-04-13T10:03:16.573Z,0.50
2023-04-13T10:05:58.539Z,0.60
2023-04-13T10:11:00.260Z,0.30
2023-04-13T10:13:34.872Z,0.50
2023-04-13T10:16:20.711Z,0.57
2023-04-13T10:18:50.197Z,0.50
2023-04-13T10:21:18.416Z,0.50
2023-04-13T10:23:45.658Z,0.50
2023-04-13T10:26:12.687Z,0.52
2023-04-13T10:28:46.961Z,0.70
2023-04-13T10:31:14.877Z,0.57
2023-04-13T10:33:49.331Z,0.40
2023-04-13T10:36:17.745Z,0.40
2023-04-13T10:38:47.844Z,0.73
2023-04-13T10:41:27.150Z,0.57
2023-04-13T10:44:07.955Z,0.40
2023-04-13T10:46:36.276Z,0.38
2023-04-13T10:49:04.514Z,0.60
2023-04-13T10:51:42.428Z,0.50
2023-04-13T10:54:14.619Z,0.43
2023-04-13T10:56:41.927Z,0.40
2023-04-13T10:59:09.456Z,0.45
2023-04-13T11:01:41.696Z,0.73
2023-04-13T11:04:13.844Z,0.50
2023-04-13T11:06:43.891Z,0.60
2023-04-13T11:09:14.325Z,0.80
2023-04-13T11:11:42.460Z,0.50
2023-04-13T11:14:09.537Z,0.70
2023-04-13T11:16:46.154Z,0.60
2023-04-13T11:19:13.508Z,0.80
2023-04-13T11:21:41.130Z,0.60
2023-04-13T11:24:08.512Z,0.60
2023-04-13T11:26:38.811Z,0.77
2023-04-13T11:29:06.830Z,0.30
2023-04-13T11:31:39.860Z,0.50
2023-04-13T11:34:09.744Z,0.27
2023-04-13T11:36:39.613Z,0.50
2023-04-13T11:39:12.740Z,0.50
2023-04-13T11:41:42.130Z,0.80
2023-04-13T11:44:12.114Z,0.50
2023-04-13T11:46:39.871Z,0.40
2023-04-13T11:49:07.649Z,0.50
2023-04-13T11:51:35.207Z,0.40
2023-04-13T11:54:03.052Z,0.50
2023-04-13T11:56:31.155Z,0.57
2023-04-13T11:58:58.779Z,0.60
2023-04-13T12:01:29.976Z,0.50
2023-04-13T12:04:15.032Z,0.60
2023-04-13T12:06:46.278Z,0.50
2023-04-13T12:09:17.335Z,0.40
2023-04-13T12:11:50.226Z,0.83
2023-04-13T12:19:27.224Z,0.60
2023-04-13T12:21:57.487Z,0.50
2023-04-13T12:24:51.326Z,0.40
2023-04-13T12:27:19.283Z,0.70
2023-04-13T12:29:46.310Z,0.47
2023-04-13T12:32:15.070Z,0.60
2023-04-13T12:34:43.529Z,0.70
2023-04-13T12:37:13.192Z,0.40
2023-04-13T12:39:40.379Z,0.70
2023-04-13T12:42:07.570Z,0.40
2023-04-13T12:44:34.780Z,0.60
2023-04-13T12:47:02.388Z,0.70
2023-04-13T12:49:30.351Z,0.50
2023-04-13T12:51:57.876Z,0.57
2023-04-13T12:54:25.975Z,0.63
2023-04-13T12:56:53.147Z,0.77
2023-04-13T12:59:23.171Z,0.60
2023-04-13T13:01:50.629Z,0.70
2023-04-13T13:04:18.004Z,0.53
2023-04-13T13:06:44.898Z,0.43
2023-04-13T13:09:12.175Z,0.53
2023-04-13T13:11:39.107Z,0.60
2023-04-13T13:14:07.029Z,1.10
2023-04-13T13:16:35.107Z,0.70
2023-04-13T13:19:02.482Z,0.50
2023-04-13T13:21:29.537Z,0.50
2023-04-13T13:23:57.250Z,1.03
2023-04-13T13:26:26.137Z,0.63
2023-04-13T13:28:57.717Z,0.80
2023-04-13T13:31:25.163Z,0.43
2023-04-13T13:33:53.387Z,0.60
2023-04-13T13:36:20.305Z,0.50
2023-04-13T13:38:47.550Z,0.60
2023-04-13T13:41:14.437Z,0.40
2023-04-13T13:43:42.454Z,0.70
2023-04-13T13:46:11.134Z,0.70
2023-04-13T13:48:39.206Z,0.60
2023-04-13T13:51:20.978Z,0.50
2023-04-13T13:53:48.165Z,0.70
2023-04-13T13:56:15.011Z,0.97
2023-04-13T13:58:42.650Z,0.40
2023-04-13T14:01:10.464Z,0.60
2023-04-13T14:03:38.478Z,0.83
2023-04-13T14:06:06.360Z,0.60
2023-04-13T14:08:33.114Z,0.70
2023-04-13T14:11:01.001Z,0.50
2023-04-13T14:13:28.017Z,0.67
2023-04-13T14:15:56.307Z,0.63
2023-04-13T14:18:24.131Z,0.73
2023-04-13T14:20:51.293Z,0.63
2023-04-13T14:23:18.489Z,0.63
2023-04-13T14:25:45.587Z,0.60
2023-04-13T14:28:14.602Z,0.47
2023-04-13T14:30:43.025Z,0.80
2023-04-13T14:33:10.008Z,1.00
2023-04-13T14:35:38.982Z,0.53
2023-04-13T14:38:05.968Z,0.60
2023-04-13T14:40:32.835Z,0.73
2023-04-13T14:42:59.747Z,0.80
2023-04-13T14:45:28.245Z,1.03
2023-04-13T14:47:55.089Z,0.67
2023-04-13T14:50:22.457Z,0.73
2023-04-13T14:52:50.304Z,0.60
2023-04-13T14:55:17.786Z,1.10
2023-04-13T14:57:48.128Z,0.97
2023-04-13T15:00:35.170Z,0.70
2023-04-13T15:03:02.049Z,0.60
2023-04-13T15:05:29.574Z,0.50
2023-04-13T15:07:56.835Z,0.60
2023-04-13T15:10:23.539Z,0.70
2023-04-13T15:12:50.314Z,0.60
2023-04-13T15:15:17.114Z,0.50
2023-04-13T15:17:45.093Z,0.60
2023-04-13T15:20:12.203Z,0.50
2023-04-13T15:22:39.234Z,0.60
2023-04-13T15:25:06.553Z,0.53
2023-04-13T15:27:34.650Z,0.80
2023-04-13T15:30:03.151Z,0.70
2023-04-13T15:32:30.504Z,1.10
2023-04-13T15:34:57.738Z,0.83
2023-04-13T15:37:24.723Z,0.67
2023-04-13T15:39:51.625Z,0.80
2023-04-13T15:42:21.136Z,0.70
2023-04-13T15:44:48.387Z,0.70
2023-04-13T15:47:15.517Z,0.90
2023-04-13T15:49:42.591Z,0.73
2023-04-13T15:52:09.689Z,0.83
2023-04-13T15:54:36.596Z,0.67
2023-04-13T15:57:03.501Z,0.73
2023-04-13T15:59:30.947Z,0.50
2023-04-13T16:01:58.888Z,0.70
2023-04-13T16:04:26.715Z,0.60
2023-04-13T16:07:09.128Z,0.70
2023-04-13T16:09:39.716Z,0.90
2023-04-13T16:12:08.665Z,0.63
2023-04-13T16:14:39.700Z,0.67
2023-04-13T16:17:07.765Z,0.93
2023-04-13T16:19:35.514Z,0.67
2023-04-13T16:22:06.382Z,0.83
2023-04-13T16:24:33.758Z,0.77
2023-04-13T16:27:00.878Z,0.90
2023-04-13T16:29:29.098Z,1.07
2023-04-13T16:31:56.480Z,0.70
2023-04-13T16:34:26.422Z,0.70
2023-04-13T16:36:54.066Z,0.73
2023-04-13T16:39:21.941Z,0.60
2023-04-13T16:41:48.731Z,0.70
2023-04-13T16:44:15.632Z,0.80
2023-04-13T16:46:43.276Z,0.80
2023-04-13T16:49:10.558Z,0.87
2023-04-13T16:51:37.366Z,0.70
2023-04-13T16:54:06.315Z,0.70
2023-04-13T16:56:33.128Z,1.10
2023-04-13T16:59:00.739Z,0.80
2023-04-13T17:01:28.559Z,4.40
2023-04-13T17:03:55.847Z,2.53
2023-04-13T17:06:22.697Z,1.57
2023-04-13T17:08:49.445Z,5.60
2023-04-13T17:11:16.218Z,1.53
2023-04-13T17:13:43.510Z,2.30
2023-04-13T17:16:10.958Z,4.80
2023-04-13T17:18:37.813Z,10.50
2023-04-13T17:21:04.622Z,2.10
2023-04-13T17:23:31.702Z,1.20
2023-04-13T17:25:59.795Z,2.93
2023-04-13T17:28:27.242Z,2.47
2023-04-13T17:30:54.529Z,1.00
2023-04-13T17:33:21.405Z,0.87
2023-04-13T17:35:52.206Z,0.70
2023-04-13T17:38:18.911Z,0.60
2023-04-13T17:40:46.306Z,0.70
2023-04-13T17:43:13.712Z,0.70
2023-04-13T17:45:41.016Z,0.83
2023-04-13T17:48:08.017Z,0.60
2023-04-13T17:50:34.834Z,0.60
2023-04-13T17:53:04.176Z,0.90
2023-04-13T17:55:31.744Z,0.60
2023-04-13T17:57:58.849Z,0.67
2023-04-13T18:00:29.157Z,0.70
2023-04-13T18:02:56.602Z,0.80
2023-04-13T18:05:24.154Z,0.73
2023-04-13T18:07:51.302Z,0.87
2023-04-13T18:10:18.148Z,1.10
2023-04-13T18:12:46.268Z,1.13
2023-04-13T18:15:13.086Z,0.90
2023-04-13T18:17:41.582Z,3.70
2023-04-13T18:20:09.159Z,1.43
2023-04-13T18:22:36.236Z,1.00
2023-04-13T18:25:03.024Z,0.80
2023-04-13T18:27:30.637Z,1.40
2023-04-13T18:29:57.374Z,1.60
2023-04-13T18:32:24.167Z,0.80
2023-04-13T18:34:50.933Z,0.90
2023-04-13T18:37:17.763Z,1.00
2023-04-13T18:39:45.812Z,1.00
2023-04-13T18:42:12.652Z,0.90
2023-04-13T18:44:39.419Z,1.87
2023-04-13T18:47:06.504Z,1.20
2023-04-13T18:49:33.219Z,1.10
2023-04-13T18:52:00.999Z,1.00
2023-04-13T18:54:27.820Z,1.10
2023-04-13T18:56:54.643Z,1.20
2023-04-13T18:59:21.390Z,0.80
2023-04-13T19:01:48.255Z,1.20
2023-04-13T19:04:16.140Z,0.90
2023-04-13T19:06:42.974Z,1.90
2023-04-13T19:09:09.881Z,1.30
2023-04-13T19:11:48.091Z,1.30
2023-04-13T19:14:15.142Z,2.90
2023-04-13T19:16:45.962Z,5.10
2023-04-13T19:19:14.846Z,3.63
2023-04-13T19:21:41.954Z,3.93
2023-04-13T19:24:11.667Z,1.30
2023-04-13T19:26:38.882Z,2.30
2023-04-13T19:29:05.955Z,1.10
2023-04-13T19:31:41.829Z,1.30
2023-04-13T19:34:09.676Z,1.10
2023-04-13T19:36:37.252Z,1.70
2023-04-13T19:39:08.325Z,1.90
2023-04-13T19:41:37.474Z,1.50
2023-04-13T19:44:05.575Z,1.83
2023-04-13T19:46:33.022Z,2.60
2023-04-13T19:49:03.748Z,1.83
2023-04-13T19:51:32.930Z,1.63
2023-04-13T19:54:03.027Z,1.73
2023-04-13T19:56:31.352Z,1.33
2023-04-13T19:58:58.221Z,1.70
2023-04-13T20:01:25.600Z,1.50
2023-04-13T20:03:52.794Z,1.50
2023-04-13T20:06:20.070Z,3.43
2023-04-13T20:08:47.978Z,2.77
2023-04-13T20:11:16.978Z,1.63
2023-04-13T20:13:46.803Z,1.60
2023-04-13T20:16:13.819Z,1.67
2023-04-13T20:18:41.594Z,1.23
2023-04-13T20:21:10.830Z,1.17
2023-04-13T20:23:37.819Z,1.10
2023-04-13T20:26:05.426Z,1.90
2023-04-13T20:28:33.399Z,1.33
2023-04-13T20:31:01.996Z,1.00
2023-04-13T20:33:28.734Z,1.10
2023-04-13T20:35:55.514Z,1.30
2023-04-13T20:38:22.434Z,0.90
2023-04-13T20:40:49.211Z,1.20
2023-04-13T20:43:18.028Z,1.40
2023-04-13T20:45:45.992Z,1.30
2023-04-13T20:50:48.282Z,1.00
2023-04-13T20:53:17.223Z,1.00
2023-04-13T20:55:44.064Z,1.00
2023-04-13T20:58:10.939Z,1.27
2023-04-13T21:00:38.431Z,2.10
2023-04-13T21:03:08.903Z,1.80
2023-04-13T21:05:36.298Z,1.17
2023-04-13T21:08:03.698Z,1.20
2023-04-13T21:10:30.786Z,1.27
2023-04-13T21:12:58.192Z,1.47
2023-04-13T21:15:24.967Z,1.10
2023-04-13T21:17:51.912Z,1.80
2023-04-13T21:20:18.787Z,1.30
2023-04-13T21:22:46.058Z,1.30
2023-04-13T21:25:13.285Z,1.40
2023-04-13T21:27:40.070Z,2.20
2023-04-13T21:30:07.464Z,1.70
2023-04-13T21:32:34.230Z,1.60
2023-04-13T21:35:02.781Z,1.53
2023-04-13T21:37:29.643Z,1.90
2023-04-13T21:39:57.815Z,1.67
2023-04-13T21:42:24.708Z,1.30
2023-04-13T21:44:51.750Z,1.60
2023-04-13T21:47:18.895Z,1.20
2023-04-13T21:49:46.197Z,1.43
2023-04-13T21:52:13.033Z,3.97
2023-04-13T21:54:39.849Z,4.00
2023-04-13T21:57:06.537Z,1.43
2023-04-13T21:59:33.281Z,1.50
2023-04-13T22:02:00.080Z,1.23
2023-04-13T22:04:27.773Z,1.60
2023-04-13T22:06:54.587Z,1.50
2023-04-13T22:09:21.474Z,1.30
2023-04-13T22:11:48.266Z,1.10
2023-04-13T22:14:15.073Z,1.33
2023-04-13T22:16:41.950Z,1.10
2023-04-13T22:19:09.570Z,1.00
2023-04-13T22:21:37.005Z,1.30
2023-04-13T22:24:04.186Z,0.97
2023-04-13T22:26:30.975Z,1.23
2023-04-13T22:28:58.999Z,1.23
2023-04-13T22:31:26.080Z,1.10
2023-04-13T22:33:52.832Z,1.47
2023-04-13T22:36:21.064Z,1.33
2023-04-13T22:38:49.416Z,2.20
2023-04-13T22:41:16.779Z,1.47
2023-04-13T22:43:43.676Z,1.60
2023-04-13T22:46:10.660Z,1.50
2023-04-13T22:48:37.430Z,1.23
2023-04-13T22:51:04.717Z,1.40
2023-04-13T22:53:31.948Z,1.33
2023-04-13T22:56:00.522Z,1.20
2023-04-13T22:58:28.175Z,1.33
2023-04-13T23:00:54.972Z,1.20
2023-04-13T23:03:22.220Z,1.17
2023-04-13T23:05:49.058Z,1.20
2023-04-13T23:08:15.851Z,1.10
2023-04-13T23:10:42.714Z,1.10
2023-04-13T23:13:09.619Z,1.20
2023-04-13T23:15:36.323Z,1.60
2023-04-13T23:18:03.511Z,1.33
2023-04-13T23:20:30.484Z,1.30
2023-04-13T23:22:57.254Z,1.13
2023-04-13T23:25:24.317Z,1.30
2023-04-13T23:27:51.112Z,1.23
2023-04-13T23:30:18.461Z,1.23
2023-04-13T23:32:45.467Z,1.17
2023-04-13T23:35:12.275Z,1.30
2023-04-13T23:37:40.698Z,1.27
2023-04-13T23:40:09.175Z,1.40
2023-04-13T23:42:35.972Z,1.50
2023-04-13T23:45:02.710Z,1.40
2023-04-13T23:47:30.412Z,1.20
2023-04-13T23:49:57.177Z,0.90
2023-04-13T23:52:23.906Z,1.60
2023-04-13T23:54:50.668Z,1.57
2023-04-13T23:57:17.697Z,1.20
2023-04-13T23:59:44.618Z,1.17
